Terminal Aerodrome Forecast
Issued by NWS

Home | Current Version | Previous Version | Text Only | Print | Product List | Glossary On
Versions: 1 2 3 4 5 6 7 8 9 10 11 12
205
FTUS41 KBTV 211725
TAFMSS
TAF
KMSS 211725Z 2118/2218 07008KT P6SM BKN200
     FM212200 16004KT P6SM BKN150
     FM220000 20004KT P6SM VCSH SCT030 BKN060 OVC110
     FM220600 22006KT P6SM BKN025
     FM221200 22004KT P6SM BKN035=

USA.gov is the U.S. government's official web portal to all federal, state and local government web resources and services.